createdAt,value
2019-04-26T00:01:39.229Z,3.15
2019-04-26T00:04:09.294Z,2.45
2019-04-26T00:06:39.747Z,2.35
2019-04-26T00:09:22.534Z,2.83
2019-04-26T00:11:53.391Z,2.52
2019-04-26T00:14:26.816Z,2.27
2019-04-26T00:16:57.930Z,2.35
2019-04-26T00:19:27.436Z,2.33
2019-04-26T00:21:56.993Z,2.90
2019-04-26T00:24:28.471Z,2.85
2019-04-26T00:26:57.463Z,2.62
2019-04-26T00:29:26.696Z,2.33
2019-04-26T00:31:57.035Z,2.60
2019-04-26T00:34:26.283Z,2.33
2019-04-26T00:36:55.450Z,2.02
2019-04-26T00:39:25.092Z,2.33
2019-04-26T00:41:54.478Z,2.02
2019-04-26T00:44:23.840Z,2.20
2019-04-26T00:46:53.043Z,2.27
2019-04-26T00:49:23.262Z,2.35
2019-04-26T00:51:52.641Z,2.30
2019-04-26T00:54:22.314Z,3.00
2019-04-26T00:56:51.517Z,2.52
2019-04-26T00:59:21.006Z,2.45
2019-04-26T01:01:51.843Z,2.25
2019-04-26T01:04:21.549Z,2.20
2019-04-26T01:06:52.477Z,2.45
2019-04-26T01:09:22.025Z,2.42
2019-04-26T01:11:51.377Z,2.35
2019-04-26T01:14:20.726Z,2.50
2019-04-26T01:16:50.235Z,2.52
2019-04-26T01:19:20.319Z,2.65
2019-04-26T01:21:52.185Z,2.83
2019-04-26T01:24:21.464Z,2.60
2019-04-26T01:26:50.891Z,2.60
2019-04-26T01:29:20.323Z,2.65
2019-04-26T01:32:08.139Z,2.45
2019-04-26T01:34:37.975Z,2.70
2019-04-26T01:37:07.182Z,2.70
2019-04-26T01:39:38.091Z,2.60
2019-04-26T01:42:12.554Z,2.70
2019-04-26T01:45:03.186Z,2.50
2019-04-26T01:47:32.764Z,2.37
2019-04-26T01:50:01.971Z,2.70
2019-04-26T01:52:31.946Z,3.00
2019-04-26T01:55:02.312Z,2.70
2019-04-26T01:57:31.648Z,2.83
2019-04-26T02:00:08.512Z,2.50
2019-04-26T02:02:40.579Z,3.00
2019-04-26T02:05:14.326Z,2.80
2019-04-26T02:07:44.164Z,2.90
2019-04-26T02:10:15.746Z,2.70
2019-04-26T02:12:46.140Z,2.90
2019-04-26T02:15:16.015Z,3.00
2019-04-26T02:17:46.077Z,2.80
2019-04-26T02:20:18.853Z,2.90
2019-04-26T02:23:04.534Z,2.67
2019-04-26T02:25:34.284Z,2.98
2019-04-26T02:28:03.736Z,3.05
2019-04-26T02:30:34.667Z,3.40
2019-04-26T02:33:04.054Z,3.02
2019-04-26T02:35:35.872Z,2.47
2019-04-26T02:38:05.214Z,3.02
2019-04-26T02:40:35.033Z,2.90
2019-04-26T02:43:04.901Z,2.92
2019-04-26T02:45:47.613Z,3.12
2019-04-26T02:48:19.012Z,2.70
2019-04-26T02:50:53.186Z,2.87
2019-04-26T02:53:43.836Z,3.00
2019-04-26T02:56:19.016Z,2.70
2019-04-26T02:58:57.050Z,2.50
2019-04-26T03:01:29.311Z,2.77
2019-04-26T03:03:58.060Z,3.00
2019-04-26T03:06:30.032Z,2.58
2019-04-26T03:08:59.114Z,2.08
2019-04-26T03:11:33.368Z,2.37
2019-04-26T03:14:04.397Z,2.20
2019-04-26T03:16:52.580Z,3.08
2019-04-26T03:19:55.375Z,2.60
2019-04-26T03:22:31.925Z,2.52
2019-04-26T03:25:11.139Z,2.20
2019-04-26T03:28:03.921Z,2.20
2019-04-26T03:31:01.900Z,2.50
2019-04-26T03:33:52.579Z,2.40
2019-04-26T03:36:52.166Z,2.40
2019-04-26T03:39:34.256Z,2.67
2019-04-26T03:42:22.833Z,2.02
2019-04-26T03:45:04.145Z,2.17
2019-04-26T03:47:44.359Z,2.70
2019-04-26T03:50:16.167Z,2.47
2019-04-26T03:53:04.771Z,2.20
2019-04-26T03:55:43.678Z,2.60
2019-04-26T03:58:29.371Z,2.37
2019-04-26T04:01:00.320Z,2.22
2019-04-26T04:03:52.930Z,2.58
2019-04-26T04:09:02.930Z,2.15
2019-04-26T04:11:40.847Z,1.90
2019-04-26T04:14:21.784Z,2.33
2019-04-26T04:16:59.200Z,2.20
2019-04-26T04:19:58.765Z,2.30
2019-04-26T04:22:40.718Z,2.05
2019-04-26T04:25:15.424Z,2.20
2019-04-26T04:27:53.878Z,2.20
2019-04-26T04:30:47.796Z,2.30
2019-04-26T04:33:36.243Z,2.08
2019-04-26T04:36:09.380Z,2.20
2019-04-26T04:38:51.350Z,2.20
2019-04-26T04:41:45.135Z,2.33
2019-04-26T04:44:28.257Z,2.10
2019-04-26T04:47:22.196Z,2.20
2019-04-26T04:49:56.357Z,2.52
2019-04-26T04:52:31.550Z,2.20
2019-04-26T04:55:14.713Z,2.95
2019-04-26T04:57:57.207Z,2.30
2019-04-26T05:03:34.157Z,2.08
2019-04-26T05:06:23.874Z,2.17
2019-04-26T05:08:56.972Z,2.30
2019-04-26T05:11:32.478Z,2.10
2019-04-26T05:14:14.410Z,2.22
2019-04-26T05:17:08.425Z,1.92
2019-04-26T05:19:59.332Z,1.92
2019-04-26T05:22:38.435Z,1.98
2019-04-26T05:25:48.026Z,1.90
2019-04-26T05:28:49.608Z,2.17
2019-04-26T05:31:31.669Z,2.15
2019-04-26T05:34:15.064Z,2.17
2019-04-26T05:36:52.667Z,1.80
2019-04-26T05:39:31.447Z,1.77
2019-04-26T05:42:26.456Z,2.80
2019-04-26T05:45:15.678Z,1.90
2019-04-26T05:48:29.200Z,2.20
2019-04-26T05:51:18.488Z,1.90
2019-04-26T05:54:37.859Z,2.08
2019-04-26T05:57:12.259Z,1.93
2019-04-26T05:59:48.071Z,1.82
2019-04-26T06:02:46.965Z,1.67
2019-04-26T06:05:30.820Z,1.75
2019-04-26T06:08:31.195Z,2.00
2019-04-26T06:10:58.020Z,2.15
2019-04-26T06:13:52.179Z,1.92
2019-04-26T06:17:13.167Z,2.10
2019-04-26T06:19:57.264Z,2.27
2019-04-26T06:22:33.269Z,3.05
2019-04-26T06:25:25.277Z,1.80
2019-04-26T06:28:03.146Z,1.77
2019-04-26T06:30:45.849Z,2.10
2019-04-26T06:33:39.712Z,1.85
2019-04-26T06:36:11.557Z,1.85
2019-04-26T06:38:54.328Z,1.90
2019-04-26T06:42:02.891Z,1.98
2019-04-26T06:44:52.242Z,1.77
2019-04-26T06:47:41.644Z,1.92
2019-04-26T06:50:25.090Z,1.90
2019-04-26T06:53:26.362Z,2.35
2019-04-26T06:56:25.081Z,1.85
2019-04-26T06:59:10.349Z,2.20
2019-04-26T07:01:43.504Z,1.55
2019-04-26T07:04:36.956Z,2.00
2019-04-26T07:07:24.953Z,1.90
2019-04-26T07:10:06.297Z,1.80
2019-04-26T07:12:57.325Z,1.60
2019-04-26T07:15:51.671Z,1.80
2019-04-26T07:18:35.862Z,1.70
2019-04-26T07:21:19.454Z,1.70
2019-04-26T07:24:17.932Z,1.87
2019-04-26T07:27:03.340Z,1.37
2019-04-26T07:30:05.532Z,1.90
2019-04-26T07:33:13.677Z,1.92
2019-04-26T07:35:52.764Z,1.60
2019-04-26T07:38:49.764Z,1.72
2019-04-26T07:41:27.142Z,1.77
2019-04-26T07:44:25.968Z,1.60
2019-04-26T07:47:17.508Z,1.50
2019-04-26T07:50:14.658Z,1.98
2019-04-26T07:53:07.313Z,2.10
2019-04-26T07:55:56.969Z,2.62
2019-04-26T07:59:05.580Z,1.95
2019-04-26T08:02:00.782Z,2.15
2019-04-26T08:04:34.655Z,1.60
2019-04-26T08:07:10.691Z,2.08
2019-04-26T08:09:42.217Z,1.92
2019-04-26T08:12:14.790Z,1.72
2019-04-26T08:14:52.236Z,1.60
2019-04-26T08:17:30.655Z,1.90
2019-04-26T08:20:33.648Z,2.27
2019-04-26T08:23:09.033Z,1.75
2019-04-26T08:25:37.241Z,1.62
2019-04-26T08:28:08.411Z,1.72
2019-04-26T08:30:44.854Z,1.90
2019-04-26T08:33:14.653Z,2.00
2019-04-26T08:35:48.991Z,1.60
2019-04-26T08:38:22.339Z,2.00
2019-04-26T08:40:49.984Z,1.90
2019-04-26T08:43:21.266Z,1.90
2019-04-26T08:46:03.261Z,2.10
2019-04-26T08:48:39.575Z,1.92
2019-04-26T08:51:11.312Z,1.95
2019-04-26T08:53:41.834Z,1.80
2019-04-26T08:56:15.244Z,1.67
2019-04-26T08:58:44.700Z,1.90
2019-04-26T09:01:25.582Z,1.77
2019-04-26T09:03:59.718Z,1.60
2019-04-26T09:06:32.978Z,1.80
2019-04-26T09:09:04.207Z,1.85
2019-04-26T09:11:35.091Z,1.70
2019-04-26T09:14:06.575Z,1.80
2019-04-26T09:16:36.644Z,1.70
2019-04-26T09:19:06.466Z,2.10
2019-04-26T09:21:38.816Z,1.80
2019-04-26T09:24:14.640Z,2.02
2019-04-26T09:26:48.450Z,2.02
2019-04-26T09:29:19.976Z,1.55
2019-04-26T09:32:08.820Z,1.45
2019-04-26T09:34:44.332Z,2.70
2019-04-26T09:37:15.030Z,1.80
2019-04-26T09:39:45.443Z,1.70
2019-04-26T09:42:29.311Z,1.77
2019-04-26T09:45:16.699Z,2.58
2019-04-26T09:47:51.877Z,3.10
2019-04-26T09:50:26.798Z,1.30
2019-04-26T09:52:58.723Z,1.92
2019-04-26T09:55:35.641Z,2.22
2019-04-26T09:58:01.350Z,1.52
2019-04-26T10:00:32.292Z,1.70
2019-04-26T10:03:05.431Z,1.55
2019-04-26T10:05:34.585Z,1.90
2019-04-26T10:08:08.340Z,1.98
2019-04-26T10:10:38.486Z,1.77
2019-04-26T10:13:08.676Z,1.60
2019-04-26T10:15:40.461Z,1.65
2019-04-26T10:18:10.859Z,1.90
2019-04-26T10:20:41.068Z,1.67
2019-04-26T10:23:11.642Z,1.72
2019-04-26T10:25:42.355Z,1.60
2019-04-26T10:28:15.901Z,1.40
2019-04-26T10:30:45.489Z,1.65
2019-04-26T10:33:16.241Z,1.33
2019-04-26T10:35:46.768Z,1.42
2019-04-26T10:38:19.331Z,1.50
2019-04-26T10:40:52.076Z,1.75
2019-04-26T10:45:54.018Z,1.35
2019-04-26T10:50:54.316Z,1.17
2019-04-26T10:53:30.074Z,1.10
2019-04-26T10:56:12.188Z,1.22
2019-04-26T10:58:49.888Z,1.17
2019-04-26T11:01:21.855Z,1.50
2019-04-26T11:03:52.440Z,1.32
2019-04-26T11:06:24.134Z,1.10
2019-04-26T11:08:55.196Z,1.25
2019-04-26T11:11:25.563Z,1.42
2019-04-26T11:13:57.540Z,1.40
2019-04-26T11:16:27.791Z,1.40
2019-04-26T11:19:01.090Z,1.27
2019-04-26T11:21:30.769Z,1.22
2019-04-26T11:24:01.528Z,2.10
2019-04-26T11:26:34.782Z,1.50
2019-04-26T11:31:33.429Z,1.02
2019-04-26T11:34:05.308Z,1.30
2019-04-26T11:36:37.568Z,1.20
2019-04-26T11:39:11.175Z,1.10
2019-04-26T11:41:41.671Z,1.37
2019-04-26T11:44:11.906Z,1.30
2019-04-26T11:46:44.971Z,1.10
2019-04-26T11:51:47.009Z,1.07
2019-04-26T11:54:20.799Z,1.15
2019-04-26T11:56:50.445Z,1.00
2019-04-26T11:59:21.656Z,1.40
2019-04-26T12:01:53.298Z,0.90
2019-04-26T12:04:26.301Z,1.40
2019-04-26T12:06:59.156Z,1.22
2019-04-26T12:09:29.370Z,0.65
2019-04-26T12:12:04.674Z,1.10
2019-04-26T12:14:34.382Z,1.25
2019-04-26T12:17:06.532Z,0.90
2019-04-26T12:19:37.047Z,0.88
2019-04-26T12:22:08.475Z,0.80
2019-04-26T12:24:39.369Z,1.00
2019-04-26T12:27:10.494Z,1.10
2019-04-26T12:29:44.157Z,0.93
2019-04-26T12:32:13.927Z,0.55
2019-04-26T12:34:44.441Z,1.15
2019-04-26T12:37:19.913Z,1.37
2019-04-26T12:39:46.861Z,0.82
2019-04-26T12:42:18.595Z,0.80
2019-04-26T12:44:51.157Z,1.25
2019-04-26T12:47:23.433Z,0.82
2019-04-26T12:49:58.932Z,0.88
2019-04-26T12:52:27.512Z,1.00
2019-04-26T12:54:58.456Z,0.80
2019-04-26T12:57:29.299Z,1.07
2019-04-26T13:00:01.805Z,1.20
2019-04-26T13:02:33.572Z,0.80
2019-04-26T13:05:03.836Z,0.90
2019-04-26T13:07:35.120Z,1.00
2019-04-26T13:10:24.531Z,0.95
2019-04-26T13:13:12.247Z,0.70
2019-04-26T13:15:56.576Z,0.72
2019-04-26T13:18:27.266Z,1.10
2019-04-26T13:20:58.483Z,0.60
2019-04-26T13:23:31.437Z,0.90
2019-04-26T13:28:32.292Z,0.80
2019-04-26T13:31:03.335Z,0.70
2019-04-26T13:33:33.836Z,0.90
2019-04-26T13:36:05.196Z,0.78
2019-04-26T13:38:39.322Z,0.90
2019-04-26T13:41:12.782Z,0.98
2019-04-26T13:43:44.739Z,1.40
2019-04-26T13:48:54.456Z,0.90
2019-04-26T13:51:26.263Z,0.90
2019-04-26T13:53:58.060Z,1.17
2019-04-26T13:56:32.113Z,1.37
2019-04-26T13:59:02.463Z,0.93
2019-04-26T14:01:33.231Z,1.05
2019-04-26T14:04:07.006Z,0.93
2019-04-26T14:09:09.173Z,1.10
2019-04-26T14:11:40.390Z,0.80
2019-04-26T14:14:10.637Z,0.88
2019-04-26T14:16:41.186Z,0.82
2019-04-26T14:19:15.518Z,1.37
2019-04-26T14:24:31.158Z,1.00
2019-04-26T14:27:03.341Z,1.45
2019-04-26T14:29:33.994Z,1.05
2019-04-26T14:32:04.247Z,1.20
2019-04-26T14:34:36.184Z,0.98
2019-04-26T14:37:11.252Z,1.45
2019-04-26T14:39:50.137Z,1.00
2019-04-26T14:42:11.491Z,1.45
2019-04-26T14:44:49.298Z,1.00
2019-04-26T14:47:17.677Z,0.65
2019-04-26T14:52:16.275Z,0.57
2019-04-26T14:54:48.735Z,0.70
2019-04-26T14:57:28.420Z,0.90
2019-04-26T15:00:00.262Z,0.78
2019-04-26T15:02:48.557Z,1.00
2019-04-26T15:05:22.234Z,1.10
2019-04-26T15:07:53.822Z,0.70
2019-04-26T15:10:26.486Z,0.90
2019-04-26T15:13:11.522Z,0.70
2019-04-26T15:15:33.207Z,0.60
2019-04-26T15:18:00.872Z,0.42
2019-04-26T15:20:32.664Z,1.00
2019-04-26T15:25:36.751Z,1.00
2019-04-26T15:28:10.954Z,0.60
2019-04-26T15:30:43.393Z,0.70
2019-04-26T15:35:42.162Z,0.70
2019-04-26T15:38:12.355Z,0.80
2019-04-26T15:40:50.576Z,0.62
2019-04-26T15:43:34.713Z,0.68
2019-04-26T15:46:24.241Z,0.80
2019-04-26T15:48:57.358Z,0.60
2019-04-26T15:51:29.360Z,0.90
2019-04-26T15:54:00.257Z,1.00
2019-04-26T15:56:32.092Z,0.80
2019-04-26T16:01:33.315Z,0.60
2019-04-26T16:04:06.297Z,1.62
2019-04-26T16:06:41.916Z,1.50
2019-04-26T16:09:13.910Z,0.70
2019-04-26T16:11:49.414Z,0.70
2019-04-26T16:14:14.827Z,1.27
2019-04-26T16:16:45.142Z,0.82
2019-04-26T16:19:15.744Z,0.95
2019-04-26T16:21:48.165Z,0.50
2019-04-26T16:24:20.447Z,0.72
2019-04-26T16:26:54.061Z,0.75
2019-04-26T16:29:25.144Z,0.40
2019-04-26T16:32:04.875Z,0.40
2019-04-26T16:34:41.685Z,0.53
2019-04-26T16:37:15.017Z,0.50
2019-04-26T16:39:48.398Z,0.33
2019-04-26T16:42:15.840Z,0.50
2019-04-26T16:44:47.175Z,0.78
2019-04-26T16:47:18.313Z,0.68
2019-04-26T16:49:48.603Z,0.80
2019-04-26T16:52:18.641Z,0.90
2019-04-26T16:54:48.602Z,0.70
2019-04-26T16:57:19.774Z,0.90
2019-04-26T16:59:56.948Z,0.80
2019-04-26T17:02:26.411Z,0.85
2019-04-26T17:04:54.034Z,1.35
2019-04-26T17:07:27.359Z,0.70
2019-04-26T17:09:59.382Z,0.37
2019-04-26T17:12:28.681Z,1.00
2019-04-26T17:14:58.922Z,0.90
2019-04-26T17:17:30.671Z,0.82
2019-04-26T17:20:02.496Z,0.68
2019-04-26T17:22:58.466Z,0.90
2019-04-26T17:25:27.508Z,1.40
2019-04-26T17:27:57.965Z,1.15
2019-04-26T17:30:34.546Z,0.72
2019-04-26T17:33:02.991Z,0.93
2019-04-26T17:35:36.657Z,0.75
2019-04-26T17:38:06.038Z,1.12
2019-04-26T17:40:37.924Z,0.68
2019-04-26T17:43:10.876Z,0.70
2019-04-26T17:45:44.149Z,0.75
2019-04-26T17:48:14.252Z,0.90
2019-04-26T17:50:44.573Z,0.70
2019-04-26T17:53:28.141Z,0.80
2019-04-26T17:55:52.951Z,0.62
2019-04-26T17:58:27.572Z,1.00
2019-04-26T18:00:56.405Z,0.60
2019-04-26T18:03:26.901Z,1.50
2019-04-26T18:05:59.390Z,0.95
2019-04-26T18:08:40.631Z,0.95
2019-04-26T18:11:01.511Z,1.70
2019-04-26T18:13:32.153Z,1.00
2019-04-26T18:16:03.612Z,1.15
2019-04-26T18:18:40.562Z,1.52
2019-04-26T18:21:28.535Z,1.10
2019-04-26T18:24:00.803Z,1.40
2019-04-26T18:26:30.490Z,1.40
2019-04-26T18:29:00.687Z,1.30
2019-04-26T18:31:30.478Z,1.40
2019-04-26T18:34:01.728Z,1.17
2019-04-26T18:36:33.079Z,1.00
2019-04-26T18:39:03.987Z,1.10
2019-04-26T18:41:34.072Z,1.02
2019-04-26T18:44:05.275Z,0.60
2019-04-26T18:46:40.541Z,0.77
2019-04-26T18:49:13.844Z,0.90
2019-04-26T18:51:48.031Z,2.62
2019-04-26T18:54:17.694Z,0.90
2019-04-26T18:56:47.688Z,0.90
2019-04-26T18:59:17.736Z,0.88
2019-04-26T19:01:47.470Z,1.55
2019-04-26T19:04:17.049Z,0.90
2019-04-26T19:06:46.635Z,0.50
2019-04-26T19:09:17.664Z,0.93
2019-04-26T19:11:48.618Z,0.93
2019-04-26T19:14:48.590Z,0.63
2019-04-26T19:17:14.505Z,0.47
2019-04-26T19:20:03.293Z,0.98
2019-04-26T19:22:34.554Z,0.72
2019-04-26T19:25:03.592Z,0.80
2019-04-26T19:27:33.328Z,0.82
2019-04-26T19:30:09.187Z,1.40
2019-04-26T19:32:35.501Z,0.90
2019-04-26T19:35:09.263Z,0.70
2019-04-26T19:40:09.189Z,0.78
2019-04-26T19:42:40.169Z,0.72
2019-04-26T19:45:17.290Z,0.75
2019-04-26T19:47:44.160Z,0.80
2019-04-26T19:50:15.327Z,1.22
2019-04-26T19:52:46.158Z,0.80
2019-04-26T19:55:32.465Z,0.75
2019-04-26T19:58:09.576Z,0.72
2019-04-26T20:00:38.465Z,0.70
2019-04-26T20:03:12.806Z,0.60
2019-04-26T20:05:43.968Z,0.85
2019-04-26T20:08:12.170Z,0.70
2019-04-26T20:10:45.494Z,0.80
2019-04-26T20:13:15.042Z,0.80
2019-04-26T20:15:43.369Z,0.80
2019-04-26T20:18:13.939Z,1.12
2019-04-26T20:20:43.496Z,0.80
2019-04-26T20:23:13.008Z,0.60
2019-04-26T20:25:42.241Z,0.80
2019-04-26T20:28:12.184Z,0.42
2019-04-26T20:31:05.903Z,0.70
2019-04-26T20:33:34.972Z,0.50
2019-04-26T20:36:04.803Z,0.60
2019-04-26T20:38:42.690Z,0.50
2019-04-26T20:41:04.666Z,0.78
2019-04-26T20:43:36.901Z,0.60
2019-04-26T20:48:37.705Z,0.55
2019-04-26T20:51:11.013Z,0.40
2019-04-26T20:53:41.036Z,0.57
2019-04-26T20:56:16.083Z,0.30
2019-04-26T20:58:43.241Z,0.62
2019-04-26T21:01:14.086Z,0.60
2019-04-26T21:03:45.951Z,0.80
2019-04-26T21:06:13.759Z,0.60
2019-04-26T21:08:42.903Z,0.88
2019-04-26T21:11:13.764Z,0.78
2019-04-26T21:13:44.072Z,0.40
2019-04-26T21:16:15.441Z,0.53
2019-04-26T21:18:44.580Z,0.68
2019-04-26T21:21:15.999Z,0.50
2019-04-26T21:23:46.433Z,0.50
2019-04-26T21:26:21.683Z,0.40
2019-04-26T21:29:03.208Z,0.80
2019-04-26T21:31:41.025Z,0.60
2019-04-26T21:34:18.204Z,0.50
2019-04-26T21:36:58.129Z,0.50
2019-04-26T21:39:47.631Z,0.53
2019-04-26T21:42:17.291Z,0.42
2019-04-26T21:44:51.589Z,0.50
2019-04-26T21:47:18.249Z,0.30
2019-04-26T21:49:47.583Z,0.30
2019-04-26T21:52:16.785Z,0.60
2019-04-26T21:54:48.445Z,0.72
2019-04-26T21:57:18.292Z,0.75
2019-04-26T21:59:47.967Z,0.47
2019-04-26T22:02:18.167Z,0.50
2019-04-26T22:04:47.403Z,0.60
2019-04-26T22:07:16.589Z,0.60
2019-04-26T22:10:01.188Z,0.60
2019-04-26T22:12:31.198Z,0.68
2019-04-26T22:15:18.229Z,0.60
2019-04-26T22:17:52.945Z,0.70
2019-04-26T22:20:33.690Z,0.57
2019-04-26T22:23:16.339Z,0.50
2019-04-26T22:25:46.070Z,0.60
2019-04-26T22:28:15.413Z,1.00
2019-04-26T22:30:44.697Z,0.60
2019-04-26T22:33:14.189Z,0.82
2019-04-26T22:35:43.483Z,0.98
2019-04-26T22:38:12.960Z,0.70
2019-04-26T22:40:43.703Z,0.70
2019-04-26T22:43:30.541Z,0.80
2019-04-26T22:46:03.184Z,0.80
2019-04-26T22:48:44.154Z,0.60
2019-04-26T22:51:14.014Z,0.68
2019-04-26T22:53:43.453Z,0.68
2019-04-26T22:56:13.368Z,1.00
2019-04-26T22:58:44.152Z,0.70
2019-04-26T23:01:14.102Z,0.88
2019-04-26T23:03:46.368Z,0.78
2019-04-26T23:06:15.347Z,0.75
2019-04-26T23:08:44.593Z,0.80
2019-04-26T23:11:14.040Z,0.68
2019-04-26T23:13:55.749Z,0.80
2019-04-26T23:16:33.599Z,1.17
2019-04-26T23:19:20.566Z,0.95
2019-04-26T23:21:57.540Z,0.88
2019-04-26T23:24:26.909Z,0.85
2019-04-26T23:26:56.178Z,0.80
2019-04-26T23:29:25.316Z,0.70
2019-04-26T23:31:55.523Z,1.05
2019-04-26T23:34:25.303Z,0.80
2019-04-26T23:36:54.811Z,0.80
2019-04-26T23:39:24.642Z,0.60
2019-04-26T23:41:56.754Z,0.95
2019-04-26T23:44:26.331Z,0.95
2019-04-26T23:47:01.242Z,0.80
2019-04-26T23:49:28.274Z,0.88
2019-04-26T23:51:57.492Z,0.70
2019-04-26T23:54:28.075Z,0.70
2019-04-26T23:56:58.877Z,1.05
2019-04-26T23:59:28.170Z,0.90
